Etusivu
METAR-TAF:

METAR-TAF

Lentoasemat :

Warroad International Airport (Swede Carlson Field)

Warroad, Minnesota, Yhdysvallat

Leveyspiiri: 48-56-29N, Pituuspiiri: 095-20-54W, korkeus merenpinnasta: 327 m

Tämänhetkinen sää

Tämä raportti tehtiin 12 minuuttia sitten, kello 07.15 UTC
Tuuli 6 kn lännestä/luoteesta
Lämpötila -19°C
Kosteus 84%
Ilmanpaine 1018 hPa
Näkyvyys: 16.1 km
Hajanaisia pilviä 1700 ft:n korkeudessa
heikkoa lumisadetta

METAR: KRRT 280715Z AUTO 30006KT 10SM -SN SCT017 M19/M21 A3007 RMK AO2

Aika: 01:27 (07:27 UTC)


TAF: puuttuu

Säähavainnot ja -ennusteet yli 4000 lentoasemalta (METAR- ja TAF-raportit).

Käytössä olevat sääasemat on merkitty karttaan keltaisilla ja punaisilla pisteillä.

Aseta hiiri pisteen päälle nähdäksesi sääaseman nimen.

Klikkaa sitten nähdäksesi säähavainnot ja -ennusteet.

Kartan vaihtaminen: klikkaa mustalla rastilla varustettuja vihreitä pisteitä, niin voit zoomata sisään; viivalla varustettua vihreää pistettä, niin voit zoomata ulos tai vihreitä nuolia, niin pääset viereisille kartoille.


METAR-TAF: